createdAt,value
2018-08-13T00:01:21.273Z,18.00
2018-08-13T00:03:49.179Z,18.00
2018-08-13T00:06:17.080Z,17.90
2018-08-13T00:08:44.997Z,17.80
2018-08-13T00:11:13.002Z,17.80
2018-08-13T00:13:40.958Z,17.80
2018-08-13T00:16:08.846Z,17.80
2018-08-13T00:18:36.749Z,17.70
2018-08-13T00:21:04.849Z,17.80
2018-08-13T00:23:32.820Z,17.60
2018-08-13T00:26:01.034Z,17.80
2018-08-13T00:28:29.288Z,17.80
2018-08-13T00:30:57.313Z,17.80
2018-08-13T00:33:25.242Z,17.80
2018-08-13T00:35:53.083Z,17.70
2018-08-13T00:38:20.759Z,17.60
2018-08-13T00:40:48.683Z,17.50
2018-08-13T00:43:16.564Z,17.50
2018-08-13T00:45:44.533Z,17.40
2018-08-13T00:48:12.420Z,17.30
2018-08-13T00:50:40.298Z,17.30
2018-08-13T00:53:08.129Z,17.30
2018-08-13T00:55:36.053Z,17.10
2018-08-13T00:58:04.200Z,17.10
2018-08-13T01:00:32.236Z,17.10
2018-08-13T01:03:00.477Z,17.10
2018-08-13T01:05:28.940Z,17.00
2018-08-13T01:07:56.821Z,17.00
2018-08-13T01:10:24.740Z,16.90
2018-08-13T01:12:52.664Z,16.90
2018-08-13T01:15:20.757Z,17.00
2018-08-13T01:17:49.539Z,17.00
2018-08-13T01:20:18.533Z,16.90
2018-08-13T01:22:46.497Z,16.80
2018-08-13T01:25:15.944Z,16.80
2018-08-13T01:27:44.306Z,16.70
2018-08-13T01:30:13.546Z,16.50
2018-08-13T01:32:41.345Z,16.50
2018-08-13T01:35:09.269Z,16.50
2018-08-13T01:37:37.221Z,16.50
2018-08-13T01:40:06.682Z,16.30
2018-08-13T01:42:34.735Z,16.30
2018-08-13T01:45:02.756Z,16.20
2018-08-13T01:47:30.921Z,16.10
2018-08-13T01:49:59.291Z,16.00
2018-08-13T01:52:27.413Z,15.90
2018-08-13T01:54:55.393Z,15.90
2018-08-13T01:57:23.317Z,15.70
2018-08-13T01:59:51.233Z,15.80
2018-08-13T02:02:19.100Z,15.60
2018-08-13T02:04:49.457Z,15.50
2018-08-13T02:07:17.340Z,15.40
2018-08-13T02:09:45.235Z,15.30
2018-08-13T02:12:13.469Z,15.20
2018-08-13T02:14:41.692Z,15.10
2018-08-13T02:17:10.139Z,15.00
2018-08-13T02:19:38.050Z,14.80
2018-08-13T02:22:05.932Z,14.90
2018-08-13T02:24:33.998Z,14.80
2018-08-13T02:27:01.929Z,14.70
2018-08-13T02:29:30.014Z,14.60
2018-08-13T02:31:58.465Z,14.60
2018-08-13T02:34:26.959Z,14.60
2018-08-13T02:36:54.927Z,14.50
2018-08-13T02:39:22.754Z,14.60
2018-08-13T02:41:50.657Z,14.50
2018-08-13T02:44:18.457Z,14.50
2018-08-13T02:46:47.402Z,14.40
2018-08-13T02:49:15.343Z,14.40
2018-08-13T02:51:43.136Z,14.30
2018-08-13T02:54:10.946Z,14.20
2018-08-13T02:56:38.898Z,14.20
2018-08-13T02:59:06.933Z,14.20
2018-08-13T03:01:35.050Z,14.20
2018-08-13T03:04:02.961Z,14.20
2018-08-13T03:06:31.405Z,14.00
2018-08-13T03:08:59.562Z,14.00
2018-08-13T03:11:27.596Z,14.00
2018-08-13T03:13:55.481Z,14.00
2018-08-13T03:16:24.332Z,13.90
2018-08-13T03:18:52.267Z,13.90
2018-08-13T03:21:20.050Z,13.90
2018-08-13T03:23:48.052Z,13.90
2018-08-13T03:26:16.024Z,14.00
2018-08-13T03:28:43.946Z,13.90
2018-08-13T03:31:11.821Z,13.90
2018-08-13T03:33:39.789Z,13.80
2018-08-13T03:36:08.025Z,13.90
2018-08-13T03:38:36.025Z,14.00
2018-08-13T03:41:04.085Z,13.90
2018-08-13T03:43:32.182Z,14.00
2018-08-13T03:46:00.401Z,14.20
2018-08-13T03:48:28.687Z,14.40
2018-08-13T03:50:56.860Z,14.70
2018-08-13T03:53:24.681Z,14.80
2018-08-13T03:55:52.578Z,15.00
2018-08-13T03:58:20.612Z,15.00
2018-08-13T04:00:48.474Z,15.00
2018-08-13T04:03:16.255Z,14.90
2018-08-13T04:05:44.273Z,15.00
2018-08-13T04:08:12.160Z,15.00
2018-08-13T04:10:40.054Z,15.00
2018-08-13T04:13:08.186Z,14.90
2018-08-13T04:15:36.131Z,14.70
2018-08-13T04:18:04.816Z,14.70
2018-08-13T04:20:32.957Z,14.70
2018-08-13T04:23:01.226Z,14.70
2018-08-13T04:25:30.067Z,14.70
2018-08-13T04:27:58.346Z,14.70
2018-08-13T04:30:26.461Z,14.60
2018-08-13T04:32:54.361Z,14.70
2018-08-13T04:35:22.185Z,14.80
2018-08-13T04:37:50.041Z,14.90
2018-08-13T04:40:18.393Z,15.00
2018-08-13T04:42:47.305Z,15.00
2018-08-13T04:45:15.394Z,15.10
2018-08-13T04:48:00.127Z,15.20
2018-08-13T04:50:28.467Z,15.40
2018-08-13T04:52:56.442Z,15.70
2018-08-13T04:55:24.262Z,15.80
2018-08-13T04:57:52.265Z,16.00
2018-08-13T05:00:20.163Z,16.10
2018-08-13T05:02:47.951Z,16.20
2018-08-13T05:05:15.878Z,16.30
2018-08-13T05:07:44.032Z,16.30
2018-08-13T05:10:11.936Z,16.40
2018-08-13T05:12:40.541Z,16.50
2018-08-13T05:15:09.701Z,16.60
2018-08-13T05:17:37.863Z,16.70
2018-08-13T05:20:08.722Z,16.70
2018-08-13T05:22:36.709Z,16.80
2018-08-13T05:25:05.966Z,16.80
2018-08-13T05:27:34.402Z,16.80
2018-08-13T05:30:02.977Z,16.90
2018-08-13T05:32:31.307Z,17.00
2018-08-13T05:34:59.931Z,17.10
2018-08-13T05:37:28.468Z,17.20
2018-08-13T05:39:59.088Z,17.30
2018-08-13T05:42:27.532Z,17.40
2018-08-13T05:44:55.379Z,17.50
2018-08-13T05:47:23.361Z,17.60
2018-08-13T05:49:51.256Z,17.80
2018-08-13T05:52:19.125Z,18.00
2018-08-13T05:54:47.064Z,18.10
2018-08-13T05:57:14.928Z,18.20
2018-08-13T05:59:42.861Z,18.40
2018-08-13T06:02:10.793Z,18.50
2018-08-13T06:04:38.571Z,18.60
2018-08-13T06:07:06.745Z,18.80
2018-08-13T06:09:35.084Z,18.90
2018-08-13T06:12:03.028Z,19.10
2018-08-13T06:14:31.143Z,19.20
2018-08-13T06:16:59.392Z,19.30
2018-08-13T06:19:27.707Z,19.40
2018-08-13T06:21:55.687Z,19.50
2018-08-13T06:24:23.666Z,19.60
2018-08-13T06:26:51.457Z,19.70
2018-08-13T06:29:19.333Z,19.70
2018-08-13T06:31:47.289Z,19.90
2018-08-13T06:34:25.624Z,20.00
2018-08-13T06:36:53.366Z,20.10
2018-08-13T06:39:21.207Z,20.30
2018-08-13T06:41:49.062Z,20.50
2018-08-13T06:44:16.910Z,21.20
2018-08-13T06:46:44.721Z,22.00
2018-08-13T06:49:12.532Z,23.10
2018-08-13T06:51:40.324Z,23.90
2018-08-13T06:54:08.200Z,24.70
2018-08-13T06:56:36.282Z,25.30
2018-08-13T06:59:04.316Z,26.00
2018-08-13T07:01:32.331Z,26.40
2018-08-13T07:04:00.468Z,26.70
2018-08-13T07:06:28.667Z,26.90
2018-08-13T07:08:56.480Z,27.20
2018-08-13T07:11:24.269Z,27.60
2018-08-13T07:13:52.080Z,27.80
2018-08-13T07:16:19.930Z,28.00
2018-08-13T07:18:47.731Z,28.20
2018-08-13T07:21:15.712Z,28.40
2018-08-13T07:23:43.547Z,28.40
2018-08-13T07:26:11.332Z,28.60
2018-08-13T07:28:39.280Z,28.70
2018-08-13T07:31:07.325Z,28.80
2018-08-13T07:33:35.185Z,29.00
2018-08-13T07:36:03.117Z,29.20
2018-08-13T07:38:31.047Z,29.50
2018-08-13T07:40:59.122Z,29.60
2018-08-13T07:43:28.054Z,29.50
2018-08-13T07:45:55.939Z,29.60
2018-08-13T07:48:23.747Z,29.50
2018-08-13T07:50:51.633Z,29.80
2018-08-13T07:53:19.547Z,29.90
2018-08-13T07:55:47.287Z,29.90
2018-08-13T07:58:15.097Z,29.90
2018-08-13T08:00:42.973Z,30.00
2018-08-13T08:03:10.797Z,29.90
2018-08-13T08:05:38.665Z,29.90
2018-08-13T08:08:06.654Z,30.00
2018-08-13T08:10:34.818Z,30.00
2018-08-13T08:13:02.919Z,30.10
2018-08-13T08:15:30.839Z,30.20
2018-08-13T08:17:59.429Z,30.10
2018-08-13T08:20:27.426Z,30.10
2018-08-13T08:22:55.291Z,30.30
2018-08-13T08:25:23.239Z,30.40
2018-08-13T08:27:51.161Z,30.50
2018-08-13T08:30:19.009Z,30.60
2018-08-13T08:32:46.960Z,30.60
2018-08-13T08:35:16.059Z,30.70
2018-08-13T08:37:44.109Z,30.90
2018-08-13T08:40:17.594Z,30.90
2018-08-13T08:42:45.801Z,30.90
2018-08-13T08:45:19.277Z,31.00
2018-08-13T08:47:47.377Z,30.90
2018-08-13T08:50:15.721Z,31.00
2018-08-13T08:52:44.575Z,31.00
2018-08-13T08:55:12.517Z,30.90
2018-08-13T08:57:40.386Z,31.00
2018-08-13T09:00:11.553Z,31.00
2018-08-13T09:02:39.341Z,30.90
2018-08-13T09:05:07.730Z,31.00
2018-08-13T09:07:35.767Z,31.00
2018-08-13T09:10:04.486Z,31.00
2018-08-13T09:12:32.463Z,31.10
2018-08-13T09:15:00.686Z,31.10
2018-08-13T09:17:39.825Z,31.20
2018-08-13T09:20:18.954Z,31.10
2018-08-13T09:22:58.266Z,30.90
2018-08-13T09:25:37.623Z,30.80
2018-08-13T09:28:16.746Z,30.60
2018-08-13T09:30:56.157Z,30.50
2018-08-13T09:33:35.297Z,30.40
2018-08-13T09:36:03.568Z,30.30
2018-08-13T09:38:32.409Z,30.10
2018-08-13T09:41:01.054Z,30.00
2018-08-13T09:43:29.627Z,30.00
2018-08-13T09:45:57.940Z,30.00
2018-08-13T09:48:25.930Z,30.10
2018-08-13T09:50:53.894Z,30.00
2018-08-13T09:53:21.774Z,29.80
2018-08-13T09:55:49.861Z,29.70
2018-08-13T09:58:17.756Z,29.50
2018-08-13T10:00:51.417Z,29.50
2018-08-13T10:03:19.285Z,29.40
2018-08-13T10:05:47.244Z,29.60
2018-08-13T10:08:15.259Z,29.60
2018-08-13T10:10:43.245Z,29.60
2018-08-13T10:13:11.245Z,29.60
2018-08-13T10:15:39.353Z,29.60
2018-08-13T10:18:07.577Z,29.70
2018-08-13T10:20:35.821Z,29.60
2018-08-13T10:23:04.370Z,29.60
2018-08-13T10:25:32.859Z,29.60
2018-08-13T10:30:52.824Z,29.80
2018-08-13T10:33:20.620Z,29.90
2018-08-13T10:35:48.245Z,29.90
2018-08-13T10:38:15.949Z,30.00
2018-08-13T10:40:44.530Z,30.10
2018-08-13T10:43:12.148Z,30.20
2018-08-13T10:45:39.716Z,30.30
2018-08-13T10:48:07.601Z,30.40
2018-08-13T10:50:35.839Z,30.50
2018-08-13T10:53:04.459Z,30.40
2018-08-13T10:55:34.068Z,30.50
2018-08-13T10:58:02.883Z,30.40
2018-08-13T11:00:31.780Z,30.30
2018-08-13T11:03:00.847Z,30.30
2018-08-13T11:05:31.399Z,30.30
2018-08-13T11:08:14.580Z,30.30
2018-08-13T11:10:42.626Z,30.20
2018-08-13T11:13:10.628Z,30.30
2018-08-13T11:15:38.538Z,30.20
2018-08-13T11:18:06.911Z,30.30
2018-08-13T11:20:35.267Z,30.40
2018-08-13T11:23:08.167Z,30.50
2018-08-13T11:25:36.226Z,30.40
2018-08-13T11:28:05.616Z,30.40
2018-08-13T11:30:33.658Z,30.30
2018-08-13T11:33:01.801Z,30.40
2018-08-13T11:35:30.169Z,30.70
2018-08-13T11:37:59.926Z,30.60
2018-08-13T11:40:28.630Z,30.60
2018-08-13T11:42:57.690Z,30.50
2018-08-13T11:45:26.236Z,30.60
2018-08-13T11:47:54.320Z,30.30
2018-08-13T11:50:22.429Z,30.10
2018-08-13T11:52:51.797Z,30.00
2018-08-13T11:55:20.375Z,29.90
2018-08-13T11:57:49.452Z,30.00
2018-08-13T12:00:17.651Z,30.20
2018-08-13T12:02:45.886Z,30.10
2018-08-13T12:05:15.736Z,30.20
2018-08-13T12:07:44.394Z,30.20
2018-08-13T12:10:13.354Z,29.90
2018-08-13T12:12:42.029Z,29.90
2018-08-13T12:15:11.168Z,30.10
2018-08-13T12:17:39.376Z,30.20
2018-08-13T12:20:13.606Z,30.40
2018-08-13T12:22:41.937Z,30.40
2018-08-13T12:25:10.310Z,30.50
2018-08-13T12:27:38.455Z,30.70
2018-08-13T12:30:08.436Z,30.70
2018-08-13T12:32:36.475Z,30.70
2018-08-13T12:35:05.337Z,30.90
2018-08-13T12:37:33.452Z,30.90
2018-08-13T12:40:01.531Z,30.90
2018-08-13T12:42:30.006Z,30.70
2018-08-13T12:44:58.139Z,30.50
2018-08-13T12:47:26.552Z,30.30
2018-08-13T12:49:54.786Z,30.20
2018-08-13T12:52:22.760Z,29.90
2018-08-13T12:54:50.769Z,29.70
2018-08-13T12:57:22.618Z,29.70
2018-08-13T12:59:50.563Z,29.90
2018-08-13T13:02:18.595Z,29.90
2018-08-13T13:04:46.518Z,29.80
2018-08-13T13:07:14.538Z,29.80
2018-08-13T13:09:42.426Z,29.70
2018-08-13T13:12:10.449Z,29.10
2018-08-13T13:14:38.457Z,28.60
2018-08-13T13:17:06.518Z,28.50
2018-08-13T13:19:34.469Z,28.10
2018-08-13T13:22:02.715Z,27.90
2018-08-13T13:24:31.033Z,27.80
2018-08-13T13:26:59.618Z,27.90
2018-08-13T13:29:27.905Z,27.80
2018-08-13T13:31:55.746Z,27.80
2018-08-13T13:34:23.760Z,27.70
2018-08-13T13:36:51.569Z,27.50
2018-08-13T13:39:19.416Z,27.20
2018-08-13T13:41:47.301Z,27.00
2018-08-13T13:44:15.150Z,26.90
2018-08-13T13:46:42.923Z,26.90
2018-08-13T13:49:10.740Z,26.60
2018-08-13T13:51:38.688Z,26.20
2018-08-13T13:54:06.933Z,26.10
2018-08-13T13:56:34.902Z,25.90
2018-08-13T13:59:03.740Z,25.70
2018-08-13T14:01:32.243Z,25.80
2018-08-13T14:04:01.472Z,25.70
2018-08-13T14:06:30.724Z,25.40
2018-08-13T14:08:59.984Z,25.40
2018-08-13T14:11:28.667Z,25.10
2018-08-13T14:13:56.751Z,25.00
2018-08-13T14:16:24.631Z,24.80
2018-08-13T14:18:53.026Z,24.70
2018-08-13T14:21:20.909Z,24.70
2018-08-13T14:23:48.830Z,24.70
2018-08-13T14:26:16.816Z,24.50
2018-08-13T14:28:44.778Z,24.60
2018-08-13T14:31:12.757Z,24.50
2018-08-13T14:33:40.967Z,24.40
2018-08-13T14:36:08.961Z,24.50
2018-08-13T14:38:36.826Z,24.40
2018-08-13T14:41:05.005Z,24.40
2018-08-13T14:43:33.244Z,24.50
2018-08-13T14:46:01.365Z,24.50
2018-08-13T14:48:30.117Z,24.50
2018-08-13T14:50:59.258Z,24.50
2018-08-13T14:53:27.543Z,24.50
2018-08-13T14:55:55.727Z,24.50
2018-08-13T14:58:23.750Z,24.40
2018-08-13T15:00:51.931Z,24.40
2018-08-13T15:03:20.204Z,24.40
2018-08-13T15:05:48.164Z,24.30
2018-08-13T15:08:16.173Z,24.30
2018-08-13T15:10:44.125Z,24.30
2018-08-13T15:13:12.102Z,24.20
2018-08-13T15:15:39.927Z,24.20
2018-08-13T15:18:09.523Z,24.20
2018-08-13T15:20:37.478Z,24.30
2018-08-13T15:23:05.606Z,24.30
2018-08-13T15:25:33.821Z,24.30
2018-08-13T15:28:05.896Z,24.30
2018-08-13T15:30:34.442Z,24.30
2018-08-13T15:33:02.591Z,24.40
2018-08-13T15:35:30.556Z,24.40
2018-08-13T15:37:59.332Z,24.40
2018-08-13T15:40:27.371Z,24.40
2018-08-13T15:42:55.619Z,24.30
2018-08-13T15:45:24.046Z,24.30
2018-08-13T15:47:52.092Z,24.30
2018-08-13T15:50:21.266Z,24.40
2018-08-13T15:52:49.621Z,24.30
2018-08-13T15:55:17.587Z,24.40
2018-08-13T15:57:45.879Z,24.50
2018-08-13T16:00:16.588Z,24.50
2018-08-13T16:02:44.415Z,24.60
2018-08-13T16:05:12.253Z,24.60
2018-08-13T16:07:40.274Z,24.60
2018-08-13T16:10:13.641Z,24.60
2018-08-13T16:12:41.981Z,24.70
2018-08-13T16:15:09.922Z,24.60
2018-08-13T16:17:38.668Z,24.50
2018-08-13T16:20:09.736Z,24.60
2018-08-13T16:22:37.977Z,24.60
2018-08-13T16:25:06.557Z,24.70
2018-08-13T16:27:34.707Z,24.60
2018-08-13T16:30:02.915Z,24.60
2018-08-13T16:32:30.963Z,24.50
2018-08-13T16:35:02.634Z,24.60
2018-08-13T16:37:30.957Z,24.60
2018-08-13T16:39:59.037Z,24.50
2018-08-13T16:42:26.990Z,24.40
2018-08-13T16:44:54.849Z,24.30
2018-08-13T16:47:22.749Z,24.10
2018-08-13T16:49:50.462Z,24.00
2018-08-13T16:52:18.310Z,24.00
2018-08-13T16:54:46.065Z,23.90
2018-08-13T16:57:14.230Z,23.90
2018-08-13T16:59:42.204Z,23.80
2018-08-13T17:02:09.992Z,23.60
2018-08-13T17:04:37.975Z,23.40
2018-08-13T17:07:05.960Z,23.20
2018-08-13T17:09:34.256Z,23.00
2018-08-13T17:12:02.781Z,22.70
2018-08-13T17:14:31.701Z,22.50
2018-08-13T17:17:00.532Z,22.50
2018-08-13T17:19:29.474Z,22.20
2018-08-13T17:21:57.779Z,22.00
2018-08-13T17:24:25.895Z,21.90
2018-08-13T17:26:54.063Z,21.90
2018-08-13T17:29:22.052Z,21.70
2018-08-13T17:31:50.687Z,21.70
2018-08-13T17:34:18.768Z,21.70
2018-08-13T17:36:46.912Z,21.70
2018-08-13T17:39:15.076Z,21.70
2018-08-13T17:41:43.222Z,21.70
2018-08-13T17:44:11.539Z,21.70
2018-08-13T17:46:39.868Z,21.70
2018-08-13T17:49:08.602Z,21.60
2018-08-13T17:51:36.913Z,21.70
2018-08-13T17:54:06.222Z,21.70
2018-08-13T17:56:34.484Z,21.60
2018-08-13T17:59:02.789Z,21.60
2018-08-13T18:01:31.125Z,21.50
2018-08-13T18:03:59.782Z,21.40
2018-08-13T18:06:35.479Z,21.30
2018-08-13T18:09:05.085Z,21.30
2018-08-13T18:11:33.727Z,21.20
2018-08-13T18:14:02.333Z,21.20
2018-08-13T18:16:31.508Z,21.20
2018-08-13T18:19:00.608Z,21.10
2018-08-13T18:21:29.817Z,21.10
2018-08-13T18:23:58.597Z,21.10
2018-08-13T18:26:35.666Z,21.10
2018-08-13T18:29:04.668Z,21.10
2018-08-13T18:31:32.834Z,21.00
2018-08-13T18:34:01.443Z,20.90
2018-08-13T18:36:30.167Z,20.90
2018-08-13T18:38:58.935Z,20.80
2018-08-13T18:41:27.448Z,20.70
2018-08-13T18:43:55.771Z,20.70
2018-08-13T18:46:23.710Z,20.70
2018-08-13T18:48:51.713Z,20.70
2018-08-13T18:51:19.670Z,20.70
2018-08-13T18:53:47.728Z,20.70
2018-08-13T18:56:15.712Z,20.60
2018-08-13T18:58:43.616Z,20.60
2018-08-13T19:01:11.612Z,20.60
2018-08-13T19:03:39.341Z,20.60
2018-08-13T19:06:07.300Z,20.50
2018-08-13T19:08:35.268Z,20.60
2018-08-13T19:11:03.898Z,20.60
2018-08-13T19:13:32.071Z,20.60
2018-08-13T19:16:01.046Z,20.60
2018-08-13T19:18:29.834Z,20.50
2018-08-13T19:20:58.611Z,20.50
2018-08-13T19:23:26.930Z,20.50
2018-08-13T19:25:54.960Z,20.40
2018-08-13T19:28:22.822Z,20.30
2018-08-13T19:30:50.847Z,20.30
2018-08-13T19:33:25.182Z,20.30
2018-08-13T19:35:53.085Z,20.30
2018-08-13T19:38:21.049Z,20.30
2018-08-13T19:40:49.383Z,20.30
2018-08-13T19:43:17.270Z,20.30
2018-08-13T19:45:45.289Z,20.30
2018-08-13T19:48:13.240Z,20.20
2018-08-13T19:50:41.438Z,20.20
2018-08-13T19:53:09.331Z,20.10
2018-08-13T19:55:37.370Z,20.00
2018-08-13T19:58:05.368Z,20.00
2018-08-13T20:00:33.310Z,20.00
2018-08-13T20:03:01.749Z,19.90
2018-08-13T20:05:30.914Z,19.90
2018-08-13T20:08:00.107Z,19.90
2018-08-13T20:10:28.676Z,19.90
2018-08-13T20:12:56.631Z,19.90
2018-08-13T20:15:24.580Z,19.90
2018-08-13T20:17:52.574Z,19.90
2018-08-13T20:20:21.039Z,19.90
2018-08-13T20:22:49.563Z,19.90
2018-08-13T20:25:18.390Z,20.00
2018-08-13T20:27:46.922Z,20.00
2018-08-13T20:30:16.827Z,20.00
2018-08-13T20:32:46.339Z,20.00
2018-08-13T20:35:14.470Z,20.00
2018-08-13T20:37:42.283Z,20.00
2018-08-13T20:40:12.250Z,20.00
2018-08-13T20:42:40.820Z,20.00
2018-08-13T20:45:11.331Z,20.00
2018-08-13T20:47:39.424Z,20.10
2018-08-13T20:50:09.764Z,20.20
2018-08-13T20:52:37.833Z,20.20
2018-08-13T20:55:08.998Z,20.30
2018-08-13T20:57:37.057Z,20.30
2018-08-13T21:00:07.372Z,20.20
2018-08-13T21:02:35.346Z,20.10
2018-08-13T21:05:03.533Z,20.10
2018-08-13T21:07:32.114Z,20.20
2018-08-13T21:10:01.846Z,20.20
2018-08-13T21:12:30.913Z,20.20
2018-08-13T21:15:00.155Z,20.30
2018-08-13T21:17:35.504Z,20.30
2018-08-13T21:20:03.657Z,20.40
2018-08-13T21:22:32.410Z,20.40
2018-08-13T21:25:01.207Z,20.40
2018-08-13T21:27:30.620Z,20.40
2018-08-13T21:30:00.240Z,20.30
2018-08-13T21:32:30.404Z,20.30
2018-08-13T21:34:59.599Z,20.40
2018-08-13T21:37:28.116Z,20.40
2018-08-13T21:39:56.332Z,20.40
2018-08-13T21:42:24.125Z,20.40
2018-08-13T21:44:52.346Z,20.40
2018-08-13T21:47:20.402Z,20.40
2018-08-13T21:49:48.200Z,20.40
2018-08-13T21:52:16.207Z,20.40
2018-08-13T21:54:44.378Z,20.50
2018-08-13T21:57:12.336Z,20.50
2018-08-13T21:59:40.208Z,20.60
2018-08-13T22:02:13.302Z,20.70
2018-08-13T22:04:42.342Z,20.70
2018-08-13T22:07:10.681Z,20.70
2018-08-13T22:09:38.770Z,20.70
2018-08-13T22:12:13.132Z,20.70
2018-08-13T22:14:42.050Z,20.60
2018-08-13T22:17:11.028Z,20.70
2018-08-13T22:19:39.006Z,20.70
2018-08-13T22:22:07.045Z,20.80
2018-08-13T22:24:46.433Z,20.70
2018-08-13T22:27:14.500Z,20.60
2018-08-13T22:29:42.342Z,20.60
2018-08-13T22:32:10.257Z,20.60
2018-08-13T22:34:38.637Z,20.60
2018-08-13T22:37:06.536Z,20.50
2018-08-13T22:39:34.394Z,20.40
2018-08-13T22:42:02.371Z,20.40
2018-08-13T22:44:30.283Z,20.30
2018-08-13T22:46:58.208Z,20.20
2018-08-13T22:49:26.074Z,20.10
2018-08-13T22:51:54.155Z,20.10
2018-08-13T22:54:22.049Z,20.10
2018-08-13T22:56:49.880Z,20.10
2018-08-13T22:59:17.726Z,20.00
2018-08-13T23:01:45.618Z,20.00
2018-08-13T23:04:13.417Z,20.00
2018-08-13T23:06:41.158Z,19.90
2018-08-13T23:09:10.196Z,19.80
2018-08-13T23:11:38.043Z,19.80
2018-08-13T23:14:05.915Z,19.70
2018-08-13T23:16:34.058Z,19.70
2018-08-13T23:19:01.870Z,19.70
2018-08-13T23:21:29.968Z,19.70
2018-08-13T23:23:58.193Z,19.70
2018-08-13T23:26:26.003Z,19.60
2018-08-13T23:28:53.905Z,19.60
2018-08-13T23:31:21.770Z,19.60
2018-08-13T23:33:49.478Z,19.50
2018-08-13T23:36:17.254Z,19.50
2018-08-13T23:38:45.131Z,19.50
2018-08-13T23:41:13.130Z,19.50
2018-08-13T23:43:40.954Z,19.40
2018-08-13T23:46:08.762Z,19.30
2018-08-13T23:48:36.609Z,19.30
2018-08-13T23:51:04.354Z,19.30
2018-08-13T23:53:32.404Z,19.20
2018-08-13T23:56:00.449Z,19.20
2018-08-13T23:58:28.415Z,19.30
